createdAt,value
2019-03-17T00:00:44.180Z,3.40
2019-03-17T00:03:14.311Z,3.70
2019-03-17T00:05:44.581Z,3.87
2019-03-17T00:08:14.859Z,2.97
2019-03-17T00:10:45.015Z,3.20
2019-03-17T00:13:17.640Z,3.33
2019-03-17T00:15:46.824Z,3.40
2019-03-17T00:18:16.669Z,3.50
2019-03-17T00:20:46.497Z,2.60
2019-03-17T00:23:16.360Z,3.10
2019-03-17T00:25:46.486Z,2.27
2019-03-17T00:28:16.330Z,3.03
2019-03-17T00:30:46.219Z,3.03
2019-03-17T00:33:16.081Z,2.83
2019-03-17T00:35:45.931Z,3.70
2019-03-17T00:38:15.836Z,3.17
2019-03-17T00:40:45.695Z,2.83
2019-03-17T00:43:15.661Z,3.50
2019-03-17T00:45:45.599Z,3.67
2019-03-17T00:48:15.478Z,3.40
2019-03-17T00:50:45.296Z,3.57
2019-03-17T00:53:15.189Z,3.50
2019-03-17T00:55:45.096Z,3.20
2019-03-17T00:58:14.977Z,3.03
2019-03-17T01:00:45.217Z,3.30
2019-03-17T01:03:15.083Z,3.07
2019-03-17T01:05:45.056Z,2.97
2019-03-17T01:08:14.928Z,2.77
2019-03-17T01:10:45.257Z,2.30
2019-03-17T01:13:15.232Z,3.13
2019-03-17T01:15:45.069Z,2.80
2019-03-17T01:18:15.230Z,2.87
2019-03-17T01:20:45.444Z,3.30
2019-03-17T01:23:15.334Z,2.47
2019-03-17T01:25:45.259Z,2.43
2019-03-17T01:28:15.110Z,2.70
2019-03-17T01:30:45.080Z,2.70
2019-03-17T01:33:15.365Z,2.63
2019-03-17T01:35:45.201Z,3.20
2019-03-17T01:38:15.393Z,2.80
2019-03-17T01:40:45.221Z,2.80
2019-03-17T01:43:15.091Z,2.50
2019-03-17T01:45:45.071Z,3.30
2019-03-17T01:48:14.918Z,2.93
2019-03-17T01:50:44.784Z,3.17
2019-03-17T01:53:14.665Z,2.40
2019-03-17T01:55:44.842Z,2.93
2019-03-17T01:58:14.803Z,2.63
2019-03-17T02:00:45.003Z,2.57
2019-03-17T02:03:15.253Z,2.20
2019-03-17T02:05:45.110Z,3.00
2019-03-17T02:08:14.980Z,2.30
2019-03-17T02:10:44.941Z,2.57
2019-03-17T02:13:15.106Z,2.30
2019-03-17T02:15:44.953Z,2.20
2019-03-17T02:18:14.823Z,1.93
2019-03-17T02:20:44.670Z,2.80
2019-03-17T02:23:14.510Z,2.20
2019-03-17T02:25:44.420Z,3.10
2019-03-17T02:28:14.579Z,2.20
2019-03-17T02:30:44.491Z,2.30
2019-03-17T02:33:14.338Z,2.60
2019-03-17T02:35:44.520Z,2.10
2019-03-17T02:38:14.724Z,3.33
2019-03-17T02:40:44.882Z,2.73
2019-03-17T02:43:14.875Z,2.80
2019-03-17T02:45:45.083Z,3.03
2019-03-17T02:48:15.667Z,3.17
2019-03-17T02:50:46.001Z,2.80
2019-03-17T02:53:16.414Z,2.70
2019-03-17T02:55:46.378Z,2.70
2019-03-17T02:58:16.254Z,3.03
2019-03-17T03:00:46.148Z,2.53
2019-03-17T03:03:15.989Z,3.17
2019-03-17T03:05:54.625Z,2.90
2019-03-17T03:08:17.565Z,2.67
2019-03-17T03:10:47.754Z,2.50
2019-03-17T03:13:17.641Z,2.70
2019-03-17T03:15:47.521Z,2.30
2019-03-17T03:18:17.373Z,2.50
2019-03-17T03:20:47.345Z,2.93
2019-03-17T03:23:17.233Z,2.23
2019-03-17T03:25:47.073Z,2.23
2019-03-17T03:28:16.981Z,2.20
2019-03-17T03:30:46.913Z,2.30
2019-03-17T03:33:17.079Z,2.50
2019-03-17T03:35:47.004Z,2.60
2019-03-17T03:38:16.844Z,2.43
2019-03-17T03:40:46.775Z,2.00
2019-03-17T03:43:16.683Z,2.20
2019-03-17T03:45:46.546Z,3.10
2019-03-17T03:48:16.720Z,2.80
2019-03-17T03:50:46.947Z,2.60
2019-03-17T03:53:17.237Z,3.13
2019-03-17T03:55:47.184Z,3.00
2019-03-17T03:58:17.435Z,2.50
2019-03-17T04:00:47.726Z,2.40
2019-03-17T04:03:17.925Z,2.87
2019-03-17T04:05:48.050Z,2.70
2019-03-17T04:08:18.032Z,2.50
2019-03-17T04:10:48.049Z,2.90
2019-03-17T04:13:18.222Z,3.50
2019-03-17T04:15:48.063Z,4.10
2019-03-17T04:18:18.328Z,2.80
2019-03-17T04:20:48.749Z,3.37
2019-03-17T04:23:18.671Z,2.63
2019-03-17T04:25:48.906Z,2.70
2019-03-17T04:28:19.085Z,2.93
2019-03-17T04:30:49.119Z,2.40
2019-03-17T04:33:18.973Z,2.60
2019-03-17T04:35:49.263Z,3.13
2019-03-17T04:38:19.112Z,3.00
2019-03-17T04:40:49.767Z,2.50
2019-03-17T04:43:20.076Z,2.97
2019-03-17T04:45:50.037Z,2.00
2019-03-17T04:48:20.023Z,2.40
2019-03-17T04:50:49.874Z,2.37
2019-03-17T04:53:20.560Z,2.73
2019-03-17T04:55:50.777Z,2.47
2019-03-17T04:58:20.668Z,3.00
2019-03-17T05:00:50.502Z,3.20
2019-03-17T05:03:20.367Z,2.33
2019-03-17T05:05:50.660Z,2.57
2019-03-17T05:08:20.726Z,2.60
2019-03-17T05:10:50.922Z,2.40
2019-03-17T05:13:20.856Z,2.30
2019-03-17T05:15:50.701Z,2.03
2019-03-17T05:18:20.648Z,2.50
2019-03-17T05:20:50.599Z,2.70
2019-03-17T05:23:20.634Z,1.63
2019-03-17T05:25:50.487Z,2.20
2019-03-17T05:28:23.053Z,2.17
2019-03-17T05:30:52.337Z,1.93
2019-03-17T05:33:22.258Z,1.90
2019-03-17T05:35:52.114Z,2.03
2019-03-17T05:38:22.234Z,2.40
2019-03-17T05:40:52.139Z,2.27
2019-03-17T05:43:22.285Z,2.20
2019-03-17T05:45:52.170Z,2.10
2019-03-17T05:48:22.041Z,1.90
2019-03-17T05:50:51.887Z,2.53
2019-03-17T05:53:21.752Z,2.60
2019-03-17T05:55:51.702Z,2.27
2019-03-17T05:58:22.226Z,2.47
2019-03-17T06:00:52.790Z,2.87
2019-03-17T06:03:22.717Z,2.40
2019-03-17T06:05:52.916Z,2.33
2019-03-17T06:08:23.032Z,2.40
2019-03-17T06:10:53.015Z,2.23
2019-03-17T06:13:22.987Z,2.60
2019-03-17T06:15:52.838Z,2.37
2019-03-17T06:18:22.738Z,2.23
2019-03-17T06:20:52.604Z,2.57
2019-03-17T06:23:22.462Z,2.63
2019-03-17T06:25:52.304Z,2.30
2019-03-17T06:28:22.540Z,2.27
2019-03-17T06:30:52.418Z,2.10
2019-03-17T06:33:22.268Z,1.97
2019-03-17T06:35:52.119Z,2.00
2019-03-17T06:38:22.584Z,2.50
2019-03-17T06:40:53.184Z,2.37
2019-03-17T06:43:23.040Z,2.40
2019-03-17T06:45:52.909Z,2.60
2019-03-17T06:48:22.779Z,2.33
2019-03-17T06:50:52.628Z,2.60
2019-03-17T06:53:22.850Z,2.40
2019-03-17T06:55:52.702Z,2.60
2019-03-17T06:58:22.565Z,2.53
2019-03-17T07:00:52.669Z,2.80
2019-03-17T07:03:22.842Z,2.20
2019-03-17T07:05:52.743Z,2.90
2019-03-17T07:08:22.846Z,3.27
2019-03-17T07:10:53.176Z,2.77
2019-03-17T07:13:23.014Z,2.53
2019-03-17T07:15:52.944Z,2.50
2019-03-17T07:18:22.906Z,2.90
2019-03-17T07:20:53.045Z,2.77
2019-03-17T07:23:22.917Z,2.90
2019-03-17T07:25:53.201Z,2.43
2019-03-17T07:28:23.502Z,3.20
2019-03-17T07:30:54.140Z,2.70
2019-03-17T07:33:24.619Z,2.50
2019-03-17T07:35:55.233Z,2.13
2019-03-17T07:38:25.055Z,2.90
2019-03-17T07:40:55.254Z,2.80
2019-03-17T07:43:25.110Z,2.23
2019-03-17T07:45:55.005Z,2.23
2019-03-17T07:48:24.903Z,2.00
2019-03-17T07:50:55.076Z,2.53
2019-03-17T07:53:24.970Z,2.90
2019-03-17T07:55:55.214Z,2.53
2019-03-17T07:58:25.065Z,2.03
2019-03-17T08:00:55.330Z,3.27
2019-03-17T08:03:25.782Z,2.40
2019-03-17T08:05:55.939Z,2.83
2019-03-17T08:08:26.147Z,2.20
2019-03-17T08:10:56.055Z,3.20
2019-03-17T08:13:26.248Z,2.87
2019-03-17T08:15:56.116Z,2.90
2019-03-17T08:18:26.061Z,2.60
2019-03-17T08:20:55.891Z,2.57
2019-03-17T08:23:26.175Z,2.50
2019-03-17T08:25:56.386Z,3.00
2019-03-17T08:28:26.203Z,2.80
2019-03-17T08:30:56.092Z,2.67
2019-03-17T08:33:25.994Z,2.77
2019-03-17T08:35:55.975Z,2.93
2019-03-17T08:38:25.925Z,4.27
2019-03-17T08:40:56.278Z,2.47
2019-03-17T08:43:26.235Z,2.90
2019-03-17T08:45:56.422Z,2.73
2019-03-17T08:48:26.585Z,2.53
2019-03-17T08:50:56.446Z,3.67
2019-03-17T08:53:27.030Z,2.27
2019-03-17T08:55:56.908Z,2.10
2019-03-17T08:58:27.120Z,2.13
2019-03-17T09:00:57.000Z,2.43
2019-03-17T09:03:27.120Z,2.50
2019-03-17T09:05:56.983Z,2.13
2019-03-17T09:08:34.826Z,2.30
2019-03-17T09:10:58.506Z,2.37
2019-03-17T09:13:28.319Z,3.07
2019-03-17T09:15:58.523Z,1.97
2019-03-17T09:18:28.393Z,2.53
2019-03-17T09:20:58.244Z,2.63
2019-03-17T09:23:28.414Z,2.37
2019-03-17T09:25:59.358Z,2.50
2019-03-17T09:28:29.485Z,2.50
2019-03-17T09:30:59.346Z,2.27
2019-03-17T09:33:29.798Z,2.47
2019-03-17T09:35:59.653Z,2.20
2019-03-17T09:38:29.649Z,2.37
2019-03-17T09:40:59.541Z,2.10
2019-03-17T09:43:29.385Z,2.00
2019-03-17T09:45:59.538Z,3.07
2019-03-17T09:48:29.976Z,2.30
2019-03-17T09:51:00.289Z,2.57
2019-03-17T09:53:30.192Z,2.23
2019-03-17T09:56:00.055Z,2.30
2019-03-17T09:58:30.006Z,2.93
2019-03-17T10:01:00.356Z,2.67
2019-03-17T10:03:30.309Z,2.10
2019-03-17T10:06:00.780Z,2.63
2019-03-17T10:08:30.791Z,2.30
2019-03-17T10:11:00.719Z,1.80
2019-03-17T10:13:30.814Z,2.03
2019-03-17T10:16:00.683Z,2.00
2019-03-17T10:18:31.399Z,1.80
2019-03-17T10:21:01.790Z,2.20
2019-03-17T10:23:32.035Z,2.80
2019-03-17T10:26:01.910Z,1.80
2019-03-17T10:28:34.952Z,2.00
2019-03-17T10:31:04.228Z,2.40
2019-03-17T10:33:34.361Z,2.70
2019-03-17T10:36:04.570Z,2.10
2019-03-17T10:38:34.452Z,2.33
2019-03-17T10:41:04.387Z,2.30
2019-03-17T10:43:34.344Z,2.60
2019-03-17T10:46:04.228Z,2.93
2019-03-17T10:48:34.696Z,1.70
2019-03-17T10:51:04.901Z,2.33
2019-03-17T10:53:35.491Z,2.50
2019-03-17T10:56:06.362Z,1.80
2019-03-17T10:58:36.193Z,2.30
2019-03-17T11:01:06.483Z,1.73
2019-03-17T11:04:14.511Z,1.93
2019-03-17T11:06:44.806Z,1.67
2019-03-17T11:09:24.712Z,1.73
2019-03-17T11:11:46.739Z,1.50
2019-03-17T11:14:17.748Z,1.83
2019-03-17T11:16:48.433Z,1.73
2019-03-17T11:19:18.704Z,1.70
2019-03-17T11:21:49.066Z,2.67
2019-03-17T11:24:19.312Z,1.80
2019-03-17T11:26:49.594Z,1.83
2019-03-17T11:29:20.190Z,1.13
2019-03-17T11:31:51.079Z,0.93
2019-03-17T11:34:21.600Z,0.80
2019-03-17T11:36:52.014Z,0.60
2019-03-17T11:39:22.910Z,0.50
2019-03-17T11:41:53.447Z,0.80
2019-03-17T11:44:23.697Z,0.60
2019-03-17T11:46:54.064Z,0.80
2019-03-17T11:49:24.314Z,0.90
2019-03-17T11:51:54.632Z,0.63
2019-03-17T11:54:25.186Z,0.60
2019-03-17T11:56:55.447Z,0.60
2019-03-17T11:59:25.758Z,0.60
2019-03-17T12:01:55.744Z,0.70
2019-03-17T12:04:25.718Z,0.73
2019-03-17T12:06:57.215Z,0.70
2019-03-17T12:09:29.420Z,1.13
2019-03-17T12:11:59.690Z,0.80
2019-03-17T12:14:30.196Z,0.60
2019-03-17T12:17:00.166Z,0.70
2019-03-17T12:19:32.768Z,0.60
2019-03-17T12:22:08.935Z,0.60
2019-03-17T12:24:36.033Z,0.73
2019-03-17T12:27:06.183Z,0.60
2019-03-17T12:29:36.929Z,0.60
2019-03-17T12:32:07.305Z,1.00
2019-03-17T12:34:38.128Z,1.10
2019-03-17T12:37:08.359Z,0.97
2019-03-17T12:39:38.720Z,0.70
2019-03-17T12:42:09.104Z,0.90
2019-03-17T12:44:39.462Z,0.90
2019-03-17T12:47:09.991Z,1.00
2019-03-17T12:49:40.292Z,1.00
2019-03-17T12:52:10.547Z,1.03
2019-03-17T12:54:41.397Z,1.90
2019-03-17T12:57:12.324Z,1.13
2019-03-17T12:59:43.652Z,0.80
2019-03-17T13:02:13.988Z,1.00
2019-03-17T13:04:43.905Z,1.23
2019-03-17T13:07:14.254Z,0.90
2019-03-17T13:09:44.483Z,0.90
2019-03-17T13:12:14.797Z,1.17
2019-03-17T13:14:45.482Z,1.00
2019-03-17T13:17:15.904Z,0.90
2019-03-17T13:19:46.084Z,0.90
2019-03-17T13:22:16.231Z,1.00
2019-03-17T13:24:46.264Z,1.30
2019-03-17T13:27:16.560Z,0.80
2019-03-17T17:06:13.399Z,0.70
2019-03-17T17:08:44.184Z,0.77
2019-03-17T17:11:14.129Z,1.00
2019-03-17T17:13:44.943Z,1.33
2019-03-17T17:16:14.920Z,1.30
2019-03-17T17:18:45.675Z,1.53
2019-03-17T17:21:15.949Z,1.30
2019-03-17T17:23:45.853Z,1.30
2019-03-17T17:26:16.055Z,1.33
2019-03-17T17:28:46.865Z,1.20
2019-03-17T17:31:17.432Z,0.77
2019-03-17T17:33:47.650Z,1.27
2019-03-17T17:36:18.288Z,1.00
2019-03-17T17:38:48.711Z,1.23
2019-03-17T17:41:19.439Z,0.80
2019-03-17T17:43:49.632Z,1.00
2019-03-17T17:46:19.888Z,1.20
2019-03-17T17:48:50.442Z,1.30
2019-03-17T17:51:20.943Z,0.70
2019-03-17T17:53:51.448Z,0.63
2019-03-17T17:56:22.311Z,0.40
2019-03-17T17:58:52.742Z,0.80
2019-03-17T18:01:23.051Z,0.50
2019-03-17T18:03:53.020Z,0.97
2019-03-17T18:06:42.563Z,1.17
2019-03-17T18:09:13.321Z,1.00
2019-03-17T18:11:43.368Z,1.00
2019-03-17T18:14:13.965Z,0.90
2019-03-17T18:16:43.923Z,0.93
2019-03-17T18:19:14.331Z,0.73
2019-03-17T18:21:45.045Z,1.30
2019-03-17T18:24:15.028Z,1.53
2019-03-17T18:26:45.558Z,0.90
2019-03-17T18:29:15.815Z,0.90
2019-03-17T18:31:46.041Z,0.90
2019-03-17T18:34:16.140Z,0.90
2019-03-17T18:36:46.204Z,0.90
2019-03-17T18:39:16.459Z,1.10
2019-03-17T18:41:47.328Z,1.10
2019-03-17T18:44:17.343Z,0.70
2019-03-17T18:46:49.142Z,1.10
2019-03-17T18:49:19.380Z,1.00
2019-03-17T18:51:50.428Z,1.07
2019-03-17T18:54:20.794Z,1.20
2019-03-17T18:56:51.184Z,1.20
2019-03-17T18:59:21.772Z,0.70
2019-03-17T19:01:52.443Z,1.33
2019-03-17T19:04:23.108Z,0.80
2019-03-17T19:06:53.613Z,0.73
2019-03-17T19:09:24.456Z,0.90
2019-03-17T19:11:54.416Z,0.87
2019-03-17T19:14:24.711Z,0.60
2019-03-17T19:16:55.166Z,1.13
2019-03-17T19:19:25.966Z,1.00
2019-03-17T19:21:55.867Z,0.90
2019-03-17T19:24:26.093Z,1.00
2019-03-17T19:26:57.345Z,1.23
2019-03-17T19:29:27.585Z,0.90
2019-03-17T19:31:57.953Z,0.93
2019-03-17T19:34:27.913Z,1.83
2019-03-17T19:36:58.740Z,1.10
2019-03-17T19:39:29.600Z,1.20
2019-03-17T19:41:59.554Z,0.90
2019-03-17T19:44:30.454Z,0.90
2019-03-17T19:47:00.817Z,0.93
2019-03-17T19:52:42.374Z,0.73
2019-03-17T19:55:12.951Z,0.77
2019-03-17T19:57:42.924Z,1.23
2019-03-17T20:00:15.122Z,1.10
2019-03-17T20:02:47.584Z,0.90
2019-03-17T20:05:16.936Z,1.57
2019-03-17T20:07:47.030Z,1.03
2019-03-17T20:10:20.481Z,1.30
2019-03-17T20:12:50.802Z,1.30
2019-03-17T20:15:20.676Z,1.33
2019-03-17T20:17:50.597Z,1.30
2019-03-17T20:20:20.701Z,1.30
2019-03-17T20:22:50.642Z,1.20
2019-03-17T20:25:21.165Z,1.47
2019-03-17T20:27:51.302Z,1.33
2019-03-17T20:30:21.481Z,1.70
2019-03-17T20:32:51.664Z,1.40
2019-03-17T20:35:21.863Z,1.17
2019-03-17T20:37:52.038Z,1.50
2019-03-17T20:40:21.888Z,1.20
2019-03-17T20:42:51.748Z,1.70
2019-03-17T20:45:22.156Z,1.37
2019-03-17T20:47:52.079Z,1.60
2019-03-17T20:50:22.428Z,1.43
2019-03-17T20:52:52.767Z,1.90
2019-03-17T20:55:23.057Z,1.80
2019-03-17T20:57:53.354Z,1.73
2019-03-17T21:00:23.291Z,1.60
2019-03-17T21:02:53.274Z,1.90
2019-03-17T21:05:23.160Z,1.20
2019-03-17T21:07:53.359Z,2.03
2019-03-17T21:10:23.507Z,1.60
2019-03-17T21:12:53.359Z,1.50
2019-03-17T21:15:23.284Z,1.67
2019-03-17T21:17:53.268Z,1.40
2019-03-17T21:20:23.260Z,1.50
2019-03-17T21:22:53.326Z,1.60
2019-03-17T21:25:23.581Z,1.43
2019-03-17T21:27:54.185Z,2.10
2019-03-17T21:30:24.074Z,1.73
2019-03-17T21:32:53.962Z,2.10
2019-03-17T21:35:24.490Z,1.50
2019-03-17T21:37:54.370Z,1.70
2019-03-17T21:40:25.061Z,2.50
2019-03-17T21:42:55.645Z,2.20
2019-03-17T21:45:27.497Z,1.70
2019-03-17T21:47:57.076Z,1.87
2019-03-17T21:50:26.982Z,1.70
2019-03-17T21:52:56.899Z,1.93
2019-03-17T21:55:27.158Z,1.47
2019-03-17T21:57:57.352Z,1.73
2019-03-17T22:00:27.241Z,2.30
2019-03-17T22:02:57.473Z,2.00
2019-03-17T22:05:27.347Z,2.63
2019-03-17T22:07:57.342Z,2.60
2019-03-17T22:10:27.232Z,2.20
2019-03-17T22:12:57.115Z,2.53
2019-03-17T22:15:26.998Z,2.17
2019-03-17T22:17:56.879Z,2.43
2019-03-17T22:20:27.143Z,2.73
2019-03-17T22:22:57.325Z,2.43
2019-03-17T22:25:27.221Z,3.13
2019-03-17T22:28:07.756Z,3.27
2019-03-17T22:30:29.140Z,3.77
2019-03-17T22:32:59.047Z,3.00
2019-03-17T22:35:28.978Z,3.23
2019-03-17T22:37:58.874Z,3.13
2019-03-17T22:40:28.742Z,2.53
2019-03-17T22:42:58.597Z,3.10
2019-03-17T22:45:28.802Z,3.20
2019-03-17T22:47:58.679Z,3.30
2019-03-17T22:50:28.661Z,2.73
2019-03-17T22:52:58.583Z,2.83
2019-03-17T22:55:28.494Z,3.33
2019-03-17T22:57:59.436Z,3.23
2019-03-17T23:00:39.803Z,3.00
2019-03-17T23:03:10.166Z,3.00
2019-03-17T23:05:40.017Z,3.10
2019-03-17T23:08:10.261Z,2.97
2019-03-17T23:10:40.438Z,3.20
2019-03-17T23:13:10.818Z,3.07
2019-03-17T23:15:40.675Z,3.67
2019-03-17T23:18:10.809Z,3.80
2019-03-17T23:20:40.656Z,4.00
2019-03-17T23:23:10.529Z,3.80
2019-03-17T23:25:40.676Z,4.00
2019-03-17T23:28:10.577Z,3.67
2019-03-17T23:30:40.800Z,3.80
2019-03-17T23:33:11.009Z,4.00
2019-03-17T23:35:40.872Z,3.80
2019-03-17T23:38:11.036Z,3.30
2019-03-17T23:40:41.172Z,2.80
2019-03-17T23:43:11.345Z,2.80
2019-03-17T23:45:41.492Z,2.90
2019-03-17T23:48:11.681Z,2.80
2019-03-17T23:50:41.587Z,3.10
2019-03-17T23:53:12.344Z,3.17
2019-03-17T23:55:42.217Z,2.20
2019-03-17T23:58:12.409Z,2.67
